Time;durP1;ratioP1;P1;durP2;ratioP2;P2;SDS_P1;SDS_P2;PMS_P1;PMS_P2;Temp;Humidity;BMP_temperature;BMP_pressure;BME280_temperature;BME280_humidity;BME280_pressure;Samples;Min_cycle;Max_cycle;Signal;HPM_P1;HPM_P2
2023/04/06 00:00:26;;;;;;;14.43;10.32;;;9.50;99.90;;;;;;5090891;28;20127;-60
2023/04/06 00:02:52;;;;;;;13.95;9.50;;;9.50;99.90;;;;;;5090197;28;20100;-61
2023/04/06 00:05:20;;;;;;;14.73;10.40;;;9.50;99.90;;;;;;5090985;28;20101;-60
2023/04/06 00:07:46;;;;;;;14.60;9.80;;;9.50;99.90;;;;;;5090417;28;20127;-61
2023/04/06 00:10:13;;;;;;;14.77;10.27;;;9.50;99.90;;;;;;5091599;28;20062;-60
2023/04/06 00:12:40;;;;;;;13.27;10.25;;;9.50;99.90;;;;;;5081495;28;20060;-60
2023/04/06 00:15:07;;;;;;;14.45;10.13;;;9.50;99.90;;;;;;5090542;28;20135;-60
2023/04/06 00:17:34;;;;;;;11.95;9.13;;;9.50;99.90;;;;;;5089612;28;20058;-60
2023/04/06 00:20:01;;;;;;;13.77;9.32;;;9.40;99.90;;;;;;5088151;28;20078;-60
2023/04/06 00:22:28;;;;;;;11.70;8.77;;;9.50;99.90;;;;;;5091127;28;20056;-59
2023/04/06 00:24:55;;;;;;;16.63;9.88;;;9.40;99.90;;;;;;5090206;28;20048;-60
2023/04/06 00:27:21;;;;;;;13.25;9.00;;;9.40;99.90;;;;;;5090842;28;20082;-60
2023/04/06 00:29:48;;;;;;;11.32;8.73;;;9.40;99.90;;;;;;5091032;28;20048;-60
2023/04/06 00:32:15;;;;;;;10.73;7.90;;;9.40;99.90;;;;;;5089313;28;20407;-60
2023/04/06 00:34:42;;;;;;;10.48;7.55;;;9.40;99.90;;;;;;5089568;28;20044;-60
2023/04/06 00:37:08;;;;;;;9.57;6.97;;;9.40;99.90;;;;;;5088811;28;20058;-60
2023/04/06 00:39:35;;;;;;;10.57;6.40;;;9.40;99.90;;;;;;5089915;28;20135;-60
2023/04/06 00:42:04;;;;;;;7.53;5.60;;;9.40;99.90;;;;;;5089183;28;20087;-60
2023/04/06 00:44:31;;;;;;;9.38;6.25;;;9.40;99.90;;;;;;5072896;28;20119;-60
2023/04/06 00:46:58;;;;;;;7.72;5.55;;;9.40;99.90;;;;;;5089522;28;20120;-60
2023/04/06 00:49:25;;;;;;;7.53;5.35;;;9.40;99.90;;;;;;5088259;28;20487;-60
2023/04/06 00:51:52;;;;;;;6.90;4.90;;;9.40;99.90;;;;;;5087889;28;20048;-60
2023/04/06 00:54:19;;;;;;;5.68;4.32;;;9.40;99.90;;;;;;5087824;28;20079;-60
2023/04/06 00:56:46;;;;;;;4.72;4.03;;;9.40;99.90;;;;;;5088820;28;20314;-61
2023/04/06 00:59:13;;;;;;;5.65;4.30;;;9.30;99.90;;;;;;5085349;28;20130;-60
2023/04/06 01:01:40;;;;;;;4.32;3.35;;;9.30;99.90;;;;;;5089364;28;20056;-61
2023/04/06 01:04:06;;;;;;;4.32;3.42;;;9.30;99.90;;;;;;5089292;28;20055;-60
2023/04/06 01:06:33;;;;;;;4.38;3.45;;;9.20;99.90;;;;;;5089064;28;20473;-61
2023/04/06 01:09:00;;;;;;;4.28;3.58;;;9.20;99.90;;;;;;5089528;28;20048;-61
2023/04/06 01:11:27;;;;;;;3.45;2.72;;;9.20;99.90;;;;;;4733914;28;9999898;-63
2023/04/06 01:13:54;;;;;;;4.80;3.20;;;9.30;99.90;;;;;;5087497;28;20075;-60
2023/04/06 01:16:21;;;;;;;4.60;3.35;;;9.30;99.90;;;;;;5088398;28;20044;-60
2023/04/06 01:18:48;;;;;;;3.65;2.75;;;9.20;99.90;;;;;;5089112;28;20101;-60
2023/04/06 01:21:15;;;;;;;3.03;2.63;;;9.20;99.90;;;;;;5089098;28;20135;-60
2023/04/06 01:23:45;;;;;;;3.63;2.53;;;9.20;99.90;;;;;;5088721;28;20292;-60
2023/04/06 01:26:12;;;;;;;5.85;3.33;;;9.20;99.90;;;;;;5088627;28;20130;-60
2023/04/06 01:28:39;;;;;;;2.35;2.15;;;9.20;99.90;;;;;;5087768;28;20044;-60
2023/04/06 01:31:08;;;;;;;3.65;2.85;;;9.20;99.90;;;;;;5098987;28;20560;-60
2023/04/06 01:33:35;;;;;;;3.38;2.65;;;9.20;99.90;;;;;;5069668;28;20067;-60
2023/04/06 01:36:03;;;;;;;3.42;2.53;;;9.20;99.90;;;;;;5088761;28;20700;-60
2023/04/06 01:38:30;;;;;;;3.65;2.90;;;9.20;99.90;;;;;;5088424;28;20052;-59
2023/04/06 01:40:57;;;;;;;3.28;2.70;;;9.20;99.90;;;;;;5088528;28;20405;-60
2023/04/06 01:43:23;;;;;;;5.53;2.80;;;9.20;99.90;;;;;;5086024;28;20050;-59
2023/04/06 01:45:50;;;;;;;2.90;2.35;;;9.20;99.90;;;;;;5088352;28;20042;-60
2023/04/06 01:48:18;;;;;;;3.35;2.47;;;9.20;99.90;;;;;;5087213;28;20090;-60
2023/04/06 01:50:45;;;;;;;3.35;2.65;;;9.20;99.90;;;;;;5088436;28;20602;-60
2023/04/06 01:53:11;;;;;;;2.95;2.33;;;9.20;99.90;;;;;;5088264;28;20052;-60
2023/04/06 01:55:38;;;;;;;2.60;2.30;;;9.20;99.90;;;;;;5086886;28;20058;-59
2023/04/06 01:58:05;;;;;;;3.22;2.42;;;9.20;99.90;;;;;;5087548;28;20127;-62
2023/04/06 02:00:32;;;;;;;5.40;3.67;;;9.20;99.90;;;;;;5086597;28;20044;-59
2023/04/06 02:02:59;;;;;;;3.20;2.35;;;9.20;99.90;;;;;;5069453;28;20047;-59
2023/04/06 02:05:26;;;;;;;2.85;2.45;;;9.20;99.90;;;;;;5088057;28;20127;-59
2023/04/06 02:07:53;;;;;;;2.65;1.67;;;9.20;99.90;;;;;;5086070;28;20478;-59
2023/04/06 02:10:20;;;;;;;3.20;2.05;;;9.20;99.90;;;;;;5087445;28;20482;-60
2023/04/06 02:12:46;;;;;;;2.40;2.00;;;9.20;99.90;;;;;;5085608;28;20044;-60
2023/04/06 02:15:13;;;;;;;2.67;1.98;;;9.20;99.90;;;;;;5087803;28;20048;-60
2023/04/06 02:17:41;;;;;;;1.98;1.77;;;9.30;99.90;;;;;;5088136;28;20058;-60
2023/04/06 02:20:08;;;;;;;2.50;2.03;;;9.30;99.90;;;;;;5088351;28;20541;-59
2023/04/06 02:22:35;;;;;;;2.10;1.85;;;9.30;99.90;;;;;;5087915;28;20121;-60
2023/04/06 02:25:02;;;;;;;1.67;1.50;;;9.30;99.90;;;;;;5085967;28;20083;-60
2023/04/06 02:27:29;;;;;;;2.22;1.83;;;9.30;99.90;;;;;;5086050;28;20036;-60
2023/04/06 02:29:55;;;;;;;3.75;1.80;;;9.30;99.90;;;;;;5084383;28;20052;-59
2023/04/06 02:32:22;;;;;;;1.80;1.67;;;9.30;99.90;;;;;;5086793;28;20136;-60
2023/04/06 02:34:49;;;;;;;2.00;1.45;;;9.30;99.90;;;;;;5086204;28;20040;-61
2023/04/06 02:37:16;;;;;;;1.60;1.42;;;9.30;99.90;;;;;;5086575;28;20047;-60
2023/04/06 02:39:42;;;;;;;2.40;1.73;;;9.30;99.90;;;;;;5087687;28;20036;-64
2023/04/06 02:42:09;;;;;;;1.98;1.60;;;9.30;99.90;;;;;;5087119;28;20507;-62
2023/04/06 02:44:36;;;;;;;2.45;2.20;;;9.30;99.90;;;;;;5087359;28;20079;-60
2023/04/06 02:47:03;;;;;;;2.33;1.88;;;9.30;99.90;;;;;;5087283;28;20486;-61
2023/04/06 02:49:29;;;;;;;2.83;1.90;;;9.30;99.90;;;;;;5087248;28;20036;-60
2023/04/06 02:51:56;;;;;;;1.92;1.73;;;9.30;99.90;;;;;;5087557;28;20055;-60
2023/04/06 02:54:23;;;;;;;2.40;1.98;;;9.20;99.90;;;;;;5086839;28;20137;-60
2023/04/06 02:56:50;;;;;;;2.53;1.80;;;9.20;99.90;;;;;;5076387;28;20051;-60
2023/04/06 02:59:16;;;;;;;2.42;1.70;;;9.30;99.90;;;;;;5086868;28;20036;-61
2023/04/06 03:01:43;;;;;;;2.72;1.77;;;9.30;99.90;;;;;;5087358;28;20044;-60
2023/04/06 03:04:10;;;;;;;2.20;1.92;;;9.30;99.90;;;;;;5086276;28;20085;-60
2023/04/06 03:06:37;;;;;;;2.00;1.55;;;9.30;99.90;;;;;;5086150;28;20052;-61
2023/04/06 03:09:05;;;;;;;1.75;1.48;;;9.30;99.90;;;;;;5085352;28;20083;-61
2023/04/06 03:11:32;;;;;;;1.60;1.27;;;9.30;99.90;;;;;;5085438;28;20113;-61
2023/04/06 03:13:59;;;;;;;2.90;1.30;;;9.30;99.90;;;;;;5086899;28;20509;-61
2023/04/06 03:16:26;;;;;;;1.25;0.98;;;9.30;99.90;;;;;;5093240;28;20048;-59
2023/04/06 03:18:52;;;;;;;1.00;0.88;;;9.30;99.90;;;;;;5087445;28;20434;-60
2023/04/06 03:21:19;;;;;;;2.03;0.70;;;9.30;99.90;;;;;;5091707;28;20208;-59
2023/04/06 03:23:46;;;;;;;0.60;0.60;;;9.30;99.90;;;;;;5091157;28;20048;-59
2023/04/06 03:26:13;;;;;;;0.77;0.60;;;9.30;99.90;;;;;;5089894;28;20136;-60
2023/04/06 03:28:40;;;;;;;0.80;0.77;;;9.30;99.90;;;;;;5091156;28;20040;-60
2023/04/06 03:31:07;;;;;;;0.40;0.40;;;9.30;99.90;;;;;;5090304;28;20446;-60
2023/04/06 03:33:33;;;;;;;0.63;0.60;;;9.30;99.90;;;;;;5089978;28;20042;-60
2023/04/06 03:36:00;;;;;;;0.40;0.40;;;9.30;99.90;;;;;;5089449;28;20513;-60
2023/04/06 03:38:27;;;;;;;0.82;0.63;;;9.30;99.90;;;;;;5091210;28;20044;-60
2023/04/06 03:40:54;;;;;;;0.73;0.60;;;9.30;99.90;;;;;;5090983;28;20101;-59
2023/04/06 03:43:20;;;;;;;1.85;0.98;;;9.30;99.90;;;;;;5090064;28;20048;-59
2023/04/06 03:45:47;;;;;;;1.17;0.63;;;9.30;99.90;;;;;;5090011;28;20066;-60
2023/04/06 03:48:14;;;;;;;0.98;0.68;;;9.30;99.90;;;;;;5091167;28;20091;-59
2023/04/06 03:50:41;;;;;;;0.80;0.80;;;9.30;99.90;;;;;;5090902;28;20109;-60
2023/04/06 03:53:08;;;;;;;0.77;0.60;;;9.30;99.90;;;;;;5088356;28;20341;-59
2023/04/06 03:55:35;;;;;;;1.27;0.88;;;9.30;99.90;;;;;;5090568;28;20424;-59
2023/04/06 03:58:02;;;;;;;0.80;0.80;;;9.30;99.90;;;;;;5090668;28;20056;-59
2023/04/06 04:00:29;;;;;;;1.17;1.08;;;9.30;99.90;;;;;;5090835;28;20044;-60
2023/04/06 04:02:56;;;;;;;2.38;1.38;;;9.30;99.90;;;;;;5087779;28;20066;-60
2023/04/06 04:05:25;;;;;;;1.63;1.40;;;9.30;99.90;;;;;;5072173;28;20048;-60
2023/04/06 04:07:52;;;;;;;1.60;1.50;;;9.40;99.90;;;;;;5090166;28;20044;-60
2023/04/06 04:10:19;;;;;;;2.20;1.80;;;9.40;99.90;;;;;;5090632;28;20055;-59
2023/04/06 04:12:45;;;;;;;1.75;1.65;;;9.40;99.90;;;;;;5089748;28;20131;-60
2023/04/06 04:15:12;;;;;;;2.50;2.08;;;9.30;99.90;;;;;;5089500;28;20522;-61
2023/04/06 04:17:39;;;;;;;4.32;2.17;;;9.30;99.90;;;;;;5090113;28;20593;-61
2023/04/06 04:20:08;;;;;;;2.70;2.22;;;9.40;99.90;;;;;;5090681;28;20173;-60
2023/04/06 04:22:35;;;;;;;2.40;2.20;;;9.40;99.90;;;;;;5090690;28;20135;-59
2023/04/06 04:25:02;;;;;;;3.70;3.10;;;9.40;99.90;;;;;;5089946;28;20491;-60
2023/04/06 04:27:28;;;;;;;3.45;3.15;;;9.40;99.90;;;;;;5090130;28;20071;-59
2023/04/06 04:29:55;;;;;;;3.47;2.97;;;9.50;99.90;;;;;;5077611;28;20558;-61
2023/04/06 04:32:22;;;;;;;3.47;2.75;;;9.50;99.90;;;;;;5087382;28;20526;-60
2023/04/06 04:34:49;;;;;;;3.85;3.33;;;9.50;99.90;;;;;;5088548;28;20046;-60
2023/04/06 04:37:16;;;;;;;4.20;3.35;;;9.60;99.90;;;;;;5088928;28;20172;-60
2023/04/06 04:39:42;;;;;;;3.17;2.88;;;9.60;99.90;;;;;;5090460;28;20040;-60
2023/04/06 04:42:09;;;;;;;3.85;3.45;;;9.60;99.90;;;;;;5089249;28;20044;-60
2023/04/06 04:44:36;;;;;;;6.50;3.15;;;9.60;99.90;;;;;;5089444;28;20051;-61
2023/04/06 04:47:02;;;;;;;3.58;3.13;;;9.60;99.90;;;;;;5090146;28;20151;-60
2023/04/06 04:49:30;;;;;;;5.60;4.35;;;9.60;99.90;;;;;;5089945;28;20075;-60
2023/04/06 04:51:56;;;;;;;4.47;3.95;;;9.60;99.90;;;;;;5089992;28;20050;-60
2023/04/06 04:54:23;;;;;;;4.72;3.83;;;9.70;99.90;;;;;;5089382;28;20058;-61
2023/04/06 04:56:50;;;;;;;4.38;3.95;;;9.70;99.90;;;;;;5090423;28;20534;-60
2023/04/06 04:59:16;;;;;;;5.40;3.85;;;9.70;99.90;;;;;;5089718;28;20052;-60
2023/04/06 05:01:43;;;;;;;4.50;4.05;;;9.70;99.90;;;;;;5090123;28;20090;-61
2023/04/06 05:04:21;;;;;;;4.70;3.67;;;9.70;99.90;;;;;;5092485;28;20040;-60
2023/04/06 05:06:48;;;;;;;5.03;4.10;;;9.70;99.90;;;;;;5089661;28;20089;-60
2023/04/06 05:09:15;;;;;;;4.35;3.90;;;9.70;99.90;;;;;;5089134;28;20044;-61
2023/04/06 05:11:42;;;;;;;5.50;4.38;;;9.70;99.90;;;;;;5088856;28;20048;-60
2023/04/06 05:14:09;;;;;;;4.15;3.75;;;9.70;99.90;;;;;;5087912;28;20089;-60
2023/04/06 05:16:36;;;;;;;6.45;4.60;;;9.70;99.90;;;;;;5071772;28;20143;-60
2023/04/06 05:19:03;;;;;;;7.90;4.30;;;9.70;99.90;;;;;;5087753;28;20419;-60
2023/04/06 05:21:30;;;;;;;4.13;3.72;;;9.70;99.90;;;;;;5088777;28;20075;-60
2023/04/06 05:23:57;;;;;;;4.07;3.63;;;9.80;99.90;;;;;;5088669;28;20051;-60
2023/04/06 05:26:24;;;;;;;5.07;4.35;;;9.80;99.90;;;;;;5089085;28;20079;-61
2023/04/06 05:28:51;;;;;;;7.15;4.22;;;9.80;99.90;;;;;;5089097;28;20098;-61
2023/04/06 05:31:17;;;;;;;5.80;4.93;;;9.80;99.90;;;;;;5088178;28;20048;-61
2023/04/06 05:33:44;;;;;;;5.72;4.18;;;9.80;99.90;;;;;;5089035;28;20056;-61
2023/04/06 05:36:11;;;;;;;5.25;4.75;;;9.80;99.90;;;;;;5089299;28;20080;-61
2023/04/06 05:38:40;;;;;;;5.18;3.95;;;9.90;99.90;;;;;;5088769;28;20410;-60
2023/04/06 05:41:07;;;;;;;5.32;4.10;;;9.90;99.90;;;;;;5088991;28;20555;-60
2023/04/06 05:43:34;;;;;;;6.30;4.85;;;9.90;99.90;;;;;;5087831;28;20051;-60
2023/04/06 05:46:01;;;;;;;5.10;4.20;;;9.90;99.90;;;;;;5088901;28;20042;-60
2023/04/06 05:48:28;;;;;;;6.10;4.90;;;10.00;99.90;;;;;;5090133;28;20467;-60
2023/04/06 05:50:54;;;;;;;6.78;4.90;;;9.90;99.90;;;;;;5088377;28;20048;-60
2023/04/06 05:53:21;;;;;;;5.78;5.03;;;9.90;99.90;;;;;;5086973;28;20047;-60
2023/04/06 05:55:48;;;;;;;7.65;5.82;;;10.00;99.90;;;;;;5088010;28;20135;-60
2023/04/06 05:58:16;;;;;;;7.07;5.60;;;10.00;99.90;;;;;;5088517;28;20437;-61
2023/04/06 06:00:45;;;;;;;6.97;5.22;;;10.00;99.90;;;;;;5088470;28;20044;-61
2023/04/06 06:03:12;;;;;;;6.72;5.15;;;10.00;99.90;;;;;;5083370;28;20048;-61
2023/04/06 06:05:39;;;;;;;9.43;6.18;;;10.00;99.90;;;;;;5086311;28;20036;-61
2023/04/06 06:08:06;;;;;;;7.85;5.55;;;10.00;99.90;;;;;;5088492;28;20121;-61
2023/04/06 06:10:33;;;;;;;9.43;5.57;;;10.00;99.90;;;;;;5087238;28;20131;-60
2023/04/06 06:13:00;;;;;;;10.32;5.38;;;10.00;99.90;;;;;;5087098;28;20608;-61
2023/04/06 06:15:27;;;;;;;8.25;5.90;;;10.00;99.90;;;;;;5088094;28;20047;-60
2023/04/06 06:17:53;;;;;;;7.65;5.60;;;10.00;99.90;;;;;;5087424;28;20048;-60
2023/04/06 06:20:20;;;;;;;7.63;5.53;;;9.90;99.90;;;;;;5087807;28;20069;-61
2023/04/06 06:22:47;;;;;;;6.50;5.25;;;10.00;99.90;;;;;;5087567;28;20052;-60
2023/04/06 06:25:14;;;;;;;9.32;5.85;;;10.00;99.90;;;;;;5088010;28;20188;-59
2023/04/06 06:27:41;;;;;;;7.03;4.93;;;10.00;99.90;;;;;;5086853;28;20075;-60
2023/04/06 06:30:08;;;;;;;7.15;5.43;;;10.10;99.90;;;;;;5093040;28;20048;-60
2023/04/06 06:32:35;;;;;;;8.07;5.38;;;10.10;99.90;;;;;;5081701;28;20048;-60
2023/04/06 06:35:02;;;;;;;8.43;5.32;;;10.10;99.90;;;;;;5087569;28;20469;-61
2023/04/06 06:37:29;;;;;;;8.05;5.25;;;10.10;99.90;;;;;;5087077;28;20044;-60
2023/04/06 06:39:56;;;;;;;7.50;5.63;;;10.10;99.90;;;;;;5087630;28;20420;-60
2023/04/06 06:42:23;;;;;;;7.03;4.85;;;10.20;99.90;;;;;;5088747;28;20120;-61
2023/04/06 06:44:51;;;;;;;6.65;4.93;;;10.20;99.90;;;;;;5087912;28;20070;-61
2023/04/06 06:47:18;;;;;;;6.68;5.22;;;10.20;99.90;;;;;;5087419;28;20087;-60
2023/04/06 06:49:45;;;;;;;5.43;4.88;;;10.20;99.90;;;;;;5087819;28;20047;-61
2023/04/06 06:52:11;;;;;;;6.68;5.10;;;10.30;99.90;;;;;;5085989;28;20048;-60
2023/04/06 06:54:38;;;;;;;6.35;4.30;;;10.30;99.90;;;;;;5085913;28;20040;-61
2023/04/06 06:57:05;;;;;;;5.15;3.85;;;10.40;99.90;;;;;;5077648;28;20093;-60
2023/04/06 06:59:32;;;;;;;7.55;4.35;;;10.50;99.90;;;;;;5087551;28;20094;-60
2023/04/06 07:01:59;;;;;;;5.32;3.15;;;10.50;99.90;;;;;;5087212;28;20051;-61
2023/04/06 07:04:26;;;;;;;5.30;3.20;;;10.60;99.90;;;;;;5086743;28;20046;-61
2023/04/06 07:06:53;;;;;;;6.82;3.15;;;10.60;99.90;;;;;;5086090;28;20459;-61
2023/04/06 07:09:19;;;;;;;3.88;2.70;;;10.60;99.90;;;;;;5087301;28;20040;-61
2023/04/06 07:11:46;;;;;;;4.28;3.28;;;10.60;99.90;;;;;;5086819;28;20113;-61
2023/04/06 07:14:14;;;;;;;4.95;2.70;;;10.60;99.90;;;;;;5087045;28;20044;-60
2023/04/06 07:16:41;;;;;;;6.78;3.78;;;10.60;99.90;;;;;;5086429;28;20123;-61
2023/04/06 07:19:09;;;;;;;4.95;4.18;;;10.60;99.90;;;;;;5083812;28;20052;-61
2023/04/06 07:21:36;;;;;;;7.45;4.10;;;10.70;99.90;;;;;;5086390;28;20056;-61
2023/04/06 07:24:03;;;;;;;5.25;3.67;;;10.80;99.90;;;;;;5086800;28;20541;-61
2023/04/06 07:26:30;;;;;;;5.13;3.30;;;10.80;99.90;;;;;;5087377;28;20127;-60
2023/04/06 07:28:57;;;;;;;5.35;3.70;;;10.90;99.90;;;;;;5086821;28;20533;-61
2023/04/06 07:31:23;;;;;;;4.63;3.47;;;10.90;99.90;;;;;;5086514;28;20048;-61
2023/04/06 07:33:50;;;;;;;4.22;2.97;;;11.00;99.90;;;;;;5086671;28;20589;-60
2023/04/06 07:36:17;;;;;;;3.90;3.08;;;11.10;99.90;;;;;;5087237;28;20062;-60
2023/04/06 07:38:45;;;;;;;3.42;2.83;;;11.20;99.90;;;;;;5087207;28;20067;-60
2023/04/06 07:41:12;;;;;;;4.78;2.47;;;11.20;99.90;;;;;;5086150;28;20062;-64
2023/04/06 07:43:39;;;;;;;4.07;2.00;;;11.20;99.90;;;;;;4774281;27;10001242;-61
2023/04/06 07:46:06;;;;;;;6.80;2.28;;;11.10;99.90;;;;;;5145323;27;20043;-61
2023/04/06 07:48:33;;;;;;;3.50;2.30;;;11.20;99.90;;;;;;5145009;27;20135;-62
2023/04/06 07:51:03;;;;;;;3.80;1.85;;;11.20;99.90;;;;;;5136463;27;20096;-61
2023/04/06 07:53:30;;;;;;;4.60;2.20;;;11.20;99.90;;;;;;5132109;27;20058;-60
2023/04/06 07:55:58;;;;;;;3.00;1.92;;;11.10;99.90;;;;;;5146127;27;20039;-60
2023/04/06 07:58:25;;;;;;;4.53;2.50;;;11.10;99.90;;;;;;5128395;27;20051;-61
2023/04/06 08:00:52;;;;;;;2.97;1.67;;;11.10;99.90;;;;;;5145645;27;20068;-60
2023/04/06 08:03:24;;;;;;;4.65;3.00;;;11.10;99.90;;;;;;5145291;27;20046;-60
2023/04/06 08:05:52;;;;;;;7.25;1.45;;;11.10;99.90;;;;;;5145671;27;20071;-62
2023/04/06 08:08:20;;;;;;;3.72;1.50;;;11.10;99.90;;;;;;5149209;27;20107;-61
2023/04/06 08:10:48;;;;;;;6.07;1.58;;;11.00;99.90;;;;;;5149591;27;20046;-61
2023/04/06 08:13:15;;;;;;;4.22;1.45;;;11.00;99.90;;;;;;5131459;27;20061;-62
2023/04/06 08:15:42;;;;;;;6.10;1.40;;;11.00;99.90;;;;;;5148515;27;20046;-61
2023/04/06 08:18:09;;;;;;;4.03;1.05;;;11.00;99.90;;;;;;5148918;27;20046;-60
2023/04/06 08:20:36;;;;;;;8.95;1.92;;;11.00;99.90;;;;;;5136820;27;20047;-60
2023/04/06 08:23:03;;;;;;;6.95;1.20;;;11.00;99.90;;;;;;5090331;28;20060;-63
2023/04/06 08:25:30;;;;;;;6.88;1.40;;;11.00;99.90;;;;;;5089631;28;20155;-61
2023/04/06 08:27:56;;;;;;;8.15;1.55;;;10.90;99.90;;;;;;5089521;28;20090;-60
2023/04/06 08:30:23;;;;;;;4.78;1.42;;;10.90;99.90;;;;;;5089487;28;20048;-61
2023/04/06 08:32:50;;;;;;;9.88;2.03;;;10.80;99.90;;;;;;5089126;28;20047;-61
2023/04/06 08:35:17;;;;;;;10.10;1.73;;;10.70;99.90;;;;;;5089715;28;20514;-60
2023/04/06 08:37:44;;;;;;;11.95;1.70;;;10.70;99.90;;;;;;5089076;28;20040;-60
2023/04/06 08:40:12;;;;;;;10.15;3.17;;;10.70;99.90;;;;;;5088694;28;20127;-61
2023/04/06 08:42:40;;;;;;;9.75;2.17;;;10.60;99.90;;;;;;5069491;28;20088;-60
2023/04/06 08:45:09;;;;;;;10.20;2.47;;;10.70;99.90;;;;;;5086807;28;20674;-61
2023/04/06 08:47:36;;;;;;;8.30;2.30;;;10.80;99.90;;;;;;5087368;28;20067;-62
2023/04/06 08:50:04;;;;;;;12.07;1.58;;;10.80;99.90;;;;;;5081384;28;20159;-59
2023/04/06 08:52:32;;;;;;;13.02;2.75;;;10.90;99.90;;;;;;5086732;28;20048;-61
2023/04/06 08:54:59;;;;;;;10.32;1.88;;;10.90;99.90;;;;;;5087926;28;20139;-60
2023/04/06 08:57:26;;;;;;;12.50;2.28;;;11.00;99.90;;;;;;5088442;28;20131;-61
2023/04/06 08:59:52;;;;;;;10.00;3.00;;;11.10;99.90;;;;;;5087847;28;20075;-59
2023/04/06 09:02:19;;;;;;;13.52;2.30;;;11.10;99.90;;;;;;5088054;28;20141;-60
2023/04/06 09:04:48;;;;;;;8.68;1.90;;;11.10;99.90;;;;;;5088024;28;20075;-60
2023/04/06 09:07:17;;;;;;;9.63;2.05;;;11.20;99.90;;;;;;5087909;28;20040;-61
2023/04/06 09:09:47;;;;;;;11.25;3.05;;;11.20;99.90;;;;;;5088626;28;20080;-62
2023/04/06 09:12:28;;;;;;;8.82;2.10;;;11.40;99.90;;;;;;5087288;28;20494;-60
2023/04/06 09:14:55;;;;;;;5.10;2.30;;;11.50;99.90;;;;;;5088702;28;20131;-62
2023/04/06 09:17:23;;;;;;;17.60;3.00;;;11.60;99.90;;;;;;5088072;28;20044;-60
2023/04/06 09:19:50;;;;;;;7.28;1.77;;;11.60;99.90;;;;;;5071669;28;20094;-60
2023/04/06 09:22:18;;;;;;;15.57;3.47;;;11.70;99.90;;;;;;5087605;28;20384;-59
2023/04/06 09:24:49;;;;;;;5.93;1.60;;;11.70;99.90;;;;;;5087767;28;20052;-61
2023/04/06 09:27:16;;;;;;;8.48;2.00;;;11.80;99.90;;;;;;5089196;28;20075;-60
2023/04/06 09:29:43;;;;;;;3.75;1.40;;;11.80;99.90;;;;;;5088354;28;20048;-62
2023/04/06 09:32:11;;;;;;;6.32;2.25;;;11.70;99.90;;;;;;5088157;28;20060;-61
2023/04/06 09:34:40;;;;;;;11.15;2.28;;;11.70;99.90;;;;;;5087605;28;20131;-62
2023/04/06 09:37:17;;;;;;;8.60;2.00;;;11.80;99.90;;;;;;5089290;28;20074;-59
2023/04/06 09:39:45;;;;;;;9.27;2.70;;;11.80;99.90;;;;;;5088349;28;20479;-60
2023/04/06 09:42:23;;;;;;;5.63;1.70;;;11.70;99.90;;;;;;4735765;28;10000030;-60
2023/04/06 09:44:50;;;;;;;8.50;2.42;;;11.80;99.90;;;;;;5084894;28;20044;-61
2023/04/06 09:47:17;;;;;;;9.52;2.20;;;11.80;99.90;;;;;;5088152;28;20086;-59
2023/04/06 09:49:44;;;;;;;11.70;1.85;;;11.60;99.90;;;;;;5087285;28;20142;-60
2023/04/06 09:52:11;;;;;;;9.07;2.25;;;11.60;99.90;;;;;;5070716;28;20071;-59
2023/04/06 09:54:37;;;;;;;12.50;1.92;;;11.60;99.90;;;;;;5070540;28;20135;-61
2023/04/06 09:57:11;;;;;;;8.82;2.22;;;11.60;99.90;;;;;;5087515;28;20048;-60
2023/04/06 10:00:13;;;;;;;5.82;1.63;;;11.70;99.90;;;;;;5087384;28;20051;-59
2023/04/06 10:02:53;;;;;;;6.72;2.00;;;11.70;99.90;;;;;;5073153;28;20076;-59
2023/04/06 10:05:35;;;;;;;14.88;2.30;;;11.70;99.90;;;;;;5086693;28;20094;-59
2023/04/06 10:08:11;;;;;;;9.20;1.70;;;11.90;99.90;;;;;;5089477;28;20047;-60
2023/04/06 10:10:37;;;;;;;9.70;2.78;;;11.90;99.90;;;;;;5087353;28;20036;-59
2023/04/06 10:13:04;;;;;;;8.35;2.40;;;12.00;99.90;;;;;;5087616;28;20487;-59
2023/04/06 10:15:33;;;;;;;12.73;1.95;;;12.00;99.90;;;;;;5088045;28;20414;-59
2023/04/06 10:18:00;;;;;;;13.63;2.40;;;12.00;99.90;;;;;;5088367;28;20050;-58
2023/04/06 10:20:29;;;;;;;9.50;2.22;;;12.00;99.90;;;;;;5087117;28;20056;-59
2023/04/06 10:23:15;;;;;;;11.15;2.63;;;12.10;99.90;;;;;;5070376;28;20052;-59
2023/04/06 10:25:59;;;;;;;9.13;2.35;;;12.10;99.90;;;;;;5087298;28;20052;-59
2023/04/06 10:28:30;;;;;;;10.25;3.78;;;12.10;99.90;;;;;;5072155;28;20072;-59
2023/04/06 10:31:00;;;;;;;7.53;1.70;;;12.10;99.90;;;;;;5086613;28;20051;-59
2023/04/06 10:33:27;;;;;;;8.27;2.35;;;12.00;99.90;;;;;;5087312;28;20046;-60
2023/04/06 10:35:57;;;;;;;8.90;1.98;;;12.10;99.90;;;;;;5087794;28;20090;-60
2023/04/06 10:38:34;;;;;;;13.35;2.35;;;12.20;99.90;;;;;;5088109;28;20442;-59
2023/04/06 10:41:05;;;;;;;8.55;1.42;;;12.40;99.90;;;;;;5086070;28;20486;-60
2023/04/06 10:43:36;;;;;;;6.38;1.60;;;12.60;99.90;;;;;;5085446;28;20199;-60
2023/04/06 10:46:04;;;;;;;8.07;3.05;;;12.60;99.90;;;;;;5084657;28;20058;-60
2023/04/06 10:48:40;;;;;;;7.15;2.25;;;12.70;99.90;;;;;;5087971;28;20083;-60
2023/04/06 10:51:13;;;;;;;8.75;1.83;;;12.60;99.90;;;;;;5087323;28;20117;-60
2023/04/06 10:53:42;;;;;;;5.38;1.27;;;12.70;99.90;;;;;;5087631;28;20047;-60
2023/04/06 10:56:13;;;;;;;10.80;1.83;;;12.60;99.90;;;;;;5085851;28;20050;-60
2023/04/06 10:58:50;;;;;;;10.50;1.65;;;12.60;99.90;;;;;;5088070;28;20048;-61
2023/04/06 11:01:18;;;;;;;6.85;1.52;;;12.60;99.90;;;;;;5087400;28;20158;-61
2023/04/06 11:03:46;;;;;;;5.72;1.08;;;12.70;99.90;;;;;;5087545;28;20059;-61
2023/04/06 11:06:26;;;;;;;6.78;1.42;;;12.60;99.90;;;;;;5087716;28;20078;-61
2023/04/06 11:08:53;;;;;;;7.18;1.55;;;12.60;99.90;;;;;;5088479;28;20039;-62
2023/04/06 11:11:21;;;;;;;4.82;1.10;;;12.60;99.90;;;;;;5087246;28;20505;-60
2023/04/06 11:13:52;;;;;;;4.28;1.30;;;12.60;99.90;;;;;;5087409;28;20048;-62
2023/04/06 11:16:20;;;;;;;2.42;1.13;;;12.70;99.90;;;;;;5086509;28;20044;-60
2023/04/06 11:18:54;;;;;;;6.88;1.35;;;12.90;99.90;;;;;;5087845;28;20044;-61
2023/04/06 11:21:33;;;;;;;5.30;2.03;;;13.20;99.90;;;;;;5087853;28;20044;-60
2023/04/06 11:24:09;;;;;;;4.88;1.15;;;13.30;99.90;;;;;;5087736;28;20048;-61
2023/04/06 11:26:44;;;;;;;17.92;3.28;;;13.40;99.90;;;;;;5087550;28;20048;-59
2023/04/06 11:29:11;;;;;;;3.13;1.52;;;13.70;99.90;;;;;;5088148;28;20101;-61
2023/04/06 11:31:51;;;;;;;5.32;1.35;;;13.60;99.90;;;;;;5085270;28;20047;-61
2023/04/06 11:34:22;;;;;;;8.65;2.00;;;13.40;99.90;;;;;;5087849;28;20047;-60
2023/04/06 11:36:59;;;;;;;6.32;1.50;;;13.10;99.90;;;;;;5087564;28;20040;-60
2023/04/06 11:39:27;;;;;;;7.30;1.77;;;13.00;99.90;;;;;;5086342;28;20072;-60
2023/04/06 11:42:03;;;;;;;5.53;1.30;;;13.10;99.90;;;;;;5090401;28;20071;-59
2023/04/06 11:44:45;;;;;;;4.55;1.40;;;13.30;99.90;;;;;;5088096;28;20052;-59
2023/04/06 11:47:12;;;;;;;9.20;1.48;;;13.50;99.90;;;;;;5089983;28;20055;-60
2023/04/06 11:49:41;;;;;;;11.57;2.00;;;13.70;99.90;;;;;;5091828;28;20534;-60
2023/04/06 11:52:22;;;;;;;7.20;1.88;;;13.70;99.90;;;;;;5089917;28;20052;-60
2023/04/06 11:54:50;;;;;;;4.95;1.52;;;13.70;99.90;;;;;;5089169;28;20142;-60
2023/04/06 11:57:17;;;;;;;4.40;1.80;;;13.70;99.90;;;;;;5090589;28;20126;-60
2023/04/06 11:59:44;;;;;;;3.95;1.33;;;13.70;99.90;;;;;;5090830;28;20052;-59
2023/04/06 12:02:11;;;;;;;6.90;1.38;;;13.60;99.90;;;;;;5090735;28;20044;-61
2023/04/06 12:04:38;;;;;;;4.22;1.00;;;13.50;99.90;;;;;;5090693;28;20040;-60
2023/04/06 12:07:05;;;;;;;8.23;1.75;;;13.40;99.90;;;;;;5090616;28;20131;-60
2023/04/06 12:09:31;;;;;;;7.55;1.92;;;13.30;99.90;;;;;;5090593;28;20044;-61
2023/04/06 12:11:58;;;;;;;4.80;1.45;;;13.10;99.90;;;;;;5089699;28;20122;-60
2023/04/06 12:14:25;;;;;;;3.53;1.15;;;12.90;99.90;;;;;;5089004;28;20102;-60
2023/04/06 12:16:52;;;;;;;5.13;1.30;;;12.70;99.90;;;;;;5090740;28;20090;-61
2023/04/06 12:19:18;;;;;;;4.18;1.45;;;12.80;99.90;;;;;;5090353;28;20044;-61
2023/04/06 12:21:45;;;;;;;3.70;1.40;;;13.00;99.90;;;;;;5090476;28;20044;-62
2023/04/06 12:24:12;;;;;;;5.32;1.38;;;12.90;99.90;;;;;;5090371;28;20047;-61
2023/04/06 12:26:41;;;;;;;7.82;1.40;;;12.90;99.90;;;;;;5090986;28;20068;-62
2023/04/06 12:29:08;;;;;;;3.92;1.25;;;13.00;99.90;;;;;;5090176;28;20056;-60
2023/04/06 12:31:35;;;;;;;4.35;1.35;;;13.10;99.90;;;;;;5088358;28;20136;-60
2023/04/06 12:34:03;;;;;;;6.85;1.30;;;13.20;99.90;;;;;;5089733;28;20075;-60
2023/04/06 12:36:30;;;;;;;3.28;1.23;;;13.40;99.90;;;;;;5090585;28;20044;-61
2023/04/06 12:38:58;;;;;;;4.32;0.90;;;13.70;99.90;;;;;;5089723;28;20052;-61
2023/04/06 12:41:25;;;;;;;4.18;1.30;;;13.70;99.90;;;;;;5089884;28;20101;-60
2023/04/06 12:43:52;;;;;;;7.80;1.65;;;13.70;99.90;;;;;;5089309;28;20173;-60
2023/04/06 12:46:19;;;;;;;4.63;1.20;;;13.90;99.90;;;;;;5088801;28;20478;-59
2023/04/06 12:48:46;;;;;;;3.20;0.80;;;14.00;99.90;;;;;;5089607;28;20052;-59
2023/04/06 12:51:13;;;;;;;2.75;0.70;;;13.90;99.90;;;;;;5090404;28;20044;-59
2023/04/06 12:53:40;;;;;;;6.85;1.30;;;13.90;99.90;;;;;;5089157;28;20131;-60